Time;durP1;ratioP1;P1;durP2;ratioP2;P2;SDS_P1;SDS_P2;PMS_P1;PMS_P2;Temp;Humidity;BMP_temperature;BMP_pressure;BME280_temperature;BME280_humidity;BME280_pressure;Samples;Min_cycle;Max_cycle;Signal;HPM_P1;HPM_P2
2022/09/18 00:00:13;;;;;;;0.10;0.10;;;10.00;99.90;;;;;;5064168;28;20040;-80
2022/09/18 00:02:39;;;;;;;0.03;0.03;;;10.00;99.90;;;;;;5067146;28;20056;-78
2022/09/18 00:05:09;;;;;;;0.10;0.10;;;10.00;99.90;;;;;;5072632;28;20560;-78
2022/09/18 00:07:36;;;;;;;0.10;0.10;;;10.00;99.90;;;;;;5071226;28;20068;-78
2022/09/18 00:10:03;;;;;;;0.10;0.10;;;9.90;99.90;;;;;;5072894;28;20114;-81
2022/09/18 00:12:30;;;;;;;0.10;0.10;;;9.90;99.90;;;;;;5075643;28;20045;-80
2022/09/18 00:14:57;;;;;;;0.10;0.10;;;9.90;99.90;;;;;;5065204;28;20448;-79
2022/09/18 00:17:23;;;;;;;0.10;0.10;;;9.90;99.90;;;;;;5068037;28;20044;-80
2022/09/18 00:19:51;;;;;;;0.10;0.10;;;9.90;99.90;;;;;;5069957;28;20410;-82
2022/09/18 00:22:19;;;;;;;0.10;0.10;;;10.00;99.90;;;;;;5065993;28;20040;-79
2022/09/18 00:24:46;;;;;;;0.10;0.10;;;9.90;99.90;;;;;;5074413;28;20076;-78
2022/09/18 00:27:12;;;;;;;0.00;0.00;;;9.90;99.90;;;;;;5073716;28;20095;-81
2022/09/18 00:29:39;;;;;;;0.10;0.10;;;9.80;99.90;;;;;;5070810;28;20036;-80
2022/09/18 00:32:06;;;;;;;0.10;0.10;;;9.80;99.90;;;;;;5070082;28;20071;-80
2022/09/18 00:34:33;;;;;;;0.10;0.10;;;9.70;99.90;;;;;;5065872;28;20041;-80
2022/09/18 00:37:00;;;;;;;0.10;0.10;;;9.70;99.90;;;;;;5070584;28;20041;-80
2022/09/18 00:39:28;;;;;;;0.10;0.10;;;9.70;99.90;;;;;;5067445;28;20051;-81
2022/09/18 00:41:55;;;;;;;0.10;0.10;;;9.80;99.90;;;;;;5066139;28;20489;-79
2022/09/18 00:44:29;;;;;;;0.10;0.10;;;9.80;99.90;;;;;;5073131;28;20080;-81
2022/09/18 00:47:12;;;;;;;0.10;0.10;;;9.80;99.90;;;;;;5073740;28;20642;-79
2022/09/18 00:49:43;;;;;;;0.10;0.10;;;9.80;99.90;;;;;;5070889;28;20479;-80
2022/09/18 00:52:10;;;;;;;0.10;0.10;;;9.80;99.90;;;;;;5069817;28;20057;-80
2022/09/18 00:54:41;;;;;;;0.10;0.10;;;9.90;99.90;;;;;;5063324;28;20303;-78
2022/09/18 00:57:11;;;;;;;0.10;0.10;;;9.90;99.90;;;;;;5068174;28;20332;-79
2022/09/18 00:59:42;;;;;;;0.10;0.10;;;10.10;99.90;;;;;;5069199;28;20045;-80
2022/09/18 01:02:09;;;;;;;0.10;0.10;;;;;;;;;;5068160;28;20049;-79
2022/09/18 01:04:36;;;;;;;0.10;0.10;;;10.00;99.90;;;;;;5072066;28;20048;-78
2022/09/18 01:07:09;;;;;;;0.10;0.10;;;9.90;99.90;;;;;;5069136;28;20470;-78
2022/09/18 01:09:44;;;;;;;0.10;0.10;;;9.80;99.90;;;;;;5066181;28;20245;-80
2022/09/18 01:12:20;;;;;;;0.10;0.10;;;9.90;99.90;;;;;;5071503;28;20045;-78
2022/09/18 01:14:55;;;;;;;0.10;0.10;;;9.90;99.90;;;;;;5068329;28;20037;-82
2022/09/18 01:17:30;;;;;;;0.10;0.10;;;9.90;99.90;;;;;;5068606;28;20051;-80
2022/09/18 01:20:36;;;;;;;0.10;0.10;;;9.80;99.90;;;;;;5065384;28;20040;-81
2022/09/18 01:23:20;;;;;;;0.10;0.10;;;9.80;99.90;;;;;;5051684;28;20471;-80
2022/09/18 01:26:02;;;;;;;0.10;0.10;;;9.80;99.90;;;;;;5084071;28;20087;-81
2022/09/18 01:28:37;;;;;;;0.10;0.10;;;9.90;99.90;;;;;;5073866;28;20341;-81
2022/09/18 01:31:09;;;;;;;0.10;0.10;;;9.90;99.90;;;;;;5061903;28;20055;-79
2022/09/18 01:33:43;;;;;;;0.10;0.10;;;9.90;99.90;;;;;;5069415;28;20052;-80
2022/09/18 01:36:14;;;;;;;0.10;0.10;;;10.00;99.90;;;;;;5073583;28;20211;-81
2022/09/18 01:38:47;;;;;;;0.10;0.10;;;10.00;99.90;;;;;;5072411;28;20074;-82
2022/09/18 01:41:19;;;;;;;0.00;0.00;;;10.00;99.90;;;;;;5072390;28;20072;-81
2022/09/18 01:43:54;;;;;;;0.10;0.10;;;10.00;99.90;;;;;;5073875;28;20037;-79
2022/09/18 01:46:22;;;;;;;0.10;0.10;;;10.00;99.90;;;;;;5071504;28;20064;-79
2022/09/18 01:48:52;;;;;;;0.10;0.10;;;10.00;99.90;;;;;;5068353;28;20128;-79
2022/09/18 01:51:23;;;;;;;0.10;0.10;;;9.90;99.90;;;;;;5071915;28;20040;-78
2022/09/18 01:53:53;;;;;;;0.10;0.10;;;9.90;99.90;;;;;;5074006;28;20500;-82
2022/09/18 01:56:25;;;;;;;0.10;0.10;;;10.00;99.90;;;;;;5074292;28;20048;-78
2022/09/18 01:58:57;;;;;;;0.00;0.00;;;9.90;99.90;;;;;;5076981;28;20076;-80
2022/09/18 02:01:28;;;;;;;0.10;0.10;;;9.80;99.90;;;;;;5069162;28;20051;-81
2022/09/18 02:04:00;;;;;;;0.10;0.10;;;9.60;99.90;;;;;;5071922;28;20052;-81
2022/09/18 02:06:32;;;;;;;0.10;0.10;;;9.70;99.90;;;;;;5067211;28;20060;-81
2022/09/18 02:09:00;;;;;;;0.10;0.10;;;9.70;99.90;;;;;;5071219;28;20044;-80
2022/09/18 02:11:28;;;;;;;0.10;0.10;;;9.80;99.90;;;;;;5068607;28;20420;-82
2022/09/18 02:14:01;;;;;;;0.10;0.10;;;9.70;99.90;;;;;;5077023;28;20059;-81
2022/09/18 02:16:31;;;;;;;0.00;0.00;;;9.70;99.90;;;;;;5065088;28;20044;-80
2022/09/18 02:19:04;;;;;;;0.10;0.10;;;9.60;99.90;;;;;;5067536;28;20072;-80
2022/09/18 02:21:32;;;;;;;0.10;0.10;;;9.60;99.90;;;;;;5070290;28;20044;-79
2022/09/18 02:24:02;;;;;;;0.10;0.10;;;9.60;99.90;;;;;;5073912;28;20040;-80
2022/09/18 02:26:31;;;;;;;0.10;0.10;;;9.50;99.90;;;;;;5072402;28;20136;-80
2022/09/18 02:29:00;;;;;;;0.10;0.10;;;9.50;99.90;;;;;;5074974;28;20052;-82
2022/09/18 02:31:27;;;;;;;0.05;0.05;;;9.50;99.90;;;;;;5064986;28;20040;-81
2022/09/18 02:33:54;;;;;;;0.10;0.10;;;9.60;99.90;;;;;;5076465;28;20469;-81
2022/09/18 02:36:53;;;;;;;0.10;0.10;;;9.60;99.90;;;;;;5072745;28;20127;-79
2022/09/18 02:39:48;;;;;;;0.10;0.10;;;9.70;99.90;;;;;;5069412;28;20068;-81
2022/09/18 02:42:25;;;;;;;0.10;0.10;;;9.70;99.90;;;;;;5068130;28;20052;-81
2022/09/18 02:44:59;;;;;;;0.10;0.10;;;9.70;99.90;;;;;;5075078;28;20127;-81
2022/09/18 02:47:34;;;;;;;0.10;0.10;;;9.70;99.90;;;;;;5068323;28;20036;-81
2022/09/18 02:50:13;;;;;;;0.10;0.10;;;9.70;99.90;;;;;;5069717;28;20475;-79
2022/09/18 02:52:46;;;;;;;0.10;0.10;;;9.70;99.90;;;;;;5068563;28;20028;-81
2022/09/18 02:55:17;;;;;;;0.10;0.10;;;9.60;99.90;;;;;;5071793;28;20093;-82
2022/09/18 02:57:48;;;;;;;0.10;0.10;;;9.60;99.90;;;;;;5077681;28;20506;-80
2022/09/18 03:00:17;;;;;;;0.10;0.10;;;9.60;99.90;;;;;;5072314;28;20041;-79
2022/09/18 03:02:44;;;;;;;0.10;0.10;;;9.60;99.90;;;;;;5073540;28;20122;-81
2022/09/18 03:05:11;;;;;;;0.10;0.10;;;9.60;99.90;;;;;;5068868;28;20028;-80
2022/09/18 03:10:07;;;;;;;0.10;0.10;;;9.60;99.90;;;;;;5058738;28;20111;-77
2022/09/18 03:12:34;;;;;;;0.10;0.10;;;9.60;99.90;;;;;;5059365;28;20123;-78
2022/09/18 03:15:00;;;;;;;0.10;0.10;;;9.60;99.90;;;;;;5062789;28;20072;-79
2022/09/18 03:17:29;;;;;;;0.10;0.10;;;9.60;99.90;;;;;;5058510;28;20045;-79
2022/09/18 03:19:55;;;;;;;0.10;0.10;;;9.60;99.90;;;;;;5060729;28;20041;-80
2022/09/18 03:22:22;;;;;;;0.10;0.10;;;9.70;99.90;;;;;;5062057;28;20048;-79
2022/09/18 03:24:49;;;;;;;0.10;0.10;;;9.70;99.90;;;;;;5062367;28;20041;-80
2022/09/18 03:27:16;;;;;;;0.10;0.10;;;9.70;99.90;;;;;;5065464;28;20032;-81
2022/09/18 03:29:44;;;;;;;0.10;0.10;;;9.70;99.90;;;;;;5058902;28;20195;-80
2022/09/18 03:32:11;;;;;;;0.10;0.10;;;9.80;99.90;;;;;;5056791;28;20039;-80
2022/09/18 03:34:39;;;;;;;0.10;0.10;;;9.80;99.90;;;;;;5056087;28;20041;-80
2022/09/18 03:37:06;;;;;;;0.10;0.10;;;9.80;99.90;;;;;;5062759;28;20036;-80
2022/09/18 03:39:32;;;;;;;0.10;0.10;;;9.90;99.90;;;;;;5066262;28;20624;-81
2022/09/18 03:41:59;;;;;;;0.10;0.10;;;10.00;99.90;;;;;;5065280;28;20035;-79
2022/09/18 03:44:26;;;;;;;0.10;0.10;;;10.10;99.90;;;;;;5061737;28;20072;-79
2022/09/18 03:46:53;;;;;;;0.03;0.03;;;10.10;99.90;;;;;;5051408;28;20457;-79
2022/09/18 03:49:19;;;;;;;0.00;0.00;;;10.20;99.90;;;;;;5062165;28;20082;-80
2022/09/18 03:51:47;;;;;;;0.10;0.10;;;10.10;99.90;;;;;;5063443;28;20111;-80
2022/09/18 03:54:15;;;;;;;0.10;0.10;;;10.10;99.90;;;;;;5064730;28;20052;-81
2022/09/18 03:56:41;;;;;;;0.10;0.10;;;10.00;99.90;;;;;;5058212;28;20052;-79
2022/09/18 03:59:08;;;;;;;0.10;0.10;;;10.00;99.90;;;;;;5061826;28;20066;-79
2022/09/18 04:01:35;;;;;;;0.10;0.10;;;10.10;99.90;;;;;;5055817;28;20037;-79
2022/09/18 04:04:02;;;;;;;0.10;0.10;;;10.00;99.90;;;;;;5060545;28;20052;-80
2022/09/18 04:06:28;;;;;;;0.10;0.10;;;10.10;99.90;;;;;;5053853;28;20056;-81
2022/09/18 04:08:56;;;;;;;0.10;0.10;;;10.10;99.90;;;;;;5059304;28;20042;-80
2022/09/18 04:11:23;;;;;;;0.10;0.10;;;10.10;99.90;;;;;;5066026;28;20040;-81
2022/09/18 04:13:50;;;;;;;0.10;0.10;;;10.00;99.90;;;;;;5060727;28;20045;-80
2022/09/18 04:16:17;;;;;;;0.10;0.10;;;10.10;99.90;;;;;;5069133;28;20044;-80
2022/09/18 04:18:44;;;;;;;0.10;0.10;;;10.10;99.90;;;;;;5064046;28;20044;-79
2022/09/18 04:21:11;;;;;;;0.10;0.10;;;10.10;99.90;;;;;;5065454;28;20508;-80
2022/09/18 04:23:38;;;;;;;0.10;0.10;;;10.10;99.90;;;;;;5065681;28;20047;-79
2022/09/18 04:26:09;;;;;;;0.10;0.10;;;10.20;99.90;;;;;;5067149;28;20403;-79
2022/09/18 04:28:36;;;;;;;0.00;0.00;;;10.10;99.90;;;;;;5064521;28;20489;-79
2022/09/18 04:31:03;;;;;;;0.03;0.03;;;10.20;99.90;;;;;;5070215;28;20040;-79
2022/09/18 04:33:30;;;;;;;0.10;0.10;;;10.10;99.90;;;;;;5065524;28;20110;-79
2022/09/18 04:35:57;;;;;;;0.10;0.10;;;10.10;99.90;;;;;;5069944;28;20033;-79
2022/09/18 04:38:28;;;;;;;0.10;0.10;;;10.00;99.90;;;;;;5069748;28;20032;-79
2022/09/18 04:40:55;;;;;;;0.10;0.10;;;10.00;99.90;;;;;;5070132;28;20059;-80
2022/09/18 04:43:25;;;;;;;0.10;0.10;;;10.10;99.90;;;;;;5064923;28;20052;-80
2022/09/18 04:45:52;;;;;;;0.10;0.10;;;10.00;99.90;;;;;;5069059;28;20512;-80
2022/09/18 04:48:20;;;;;;;0.10;0.10;;;10.00;99.90;;;;;;5066618;28;20502;-79
2022/09/18 04:50:48;;;;;;;0.10;0.10;;;10.00;99.90;;;;;;5066559;28;20043;-80
2022/09/18 04:53:15;;;;;;;0.10;0.10;;;10.10;99.90;;;;;;5065395;28;20235;-80
2022/09/18 04:55:43;;;;;;;0.10;0.10;;;10.10;99.90;;;;;;5065097;28;20050;-80
2022/09/18 04:58:10;;;;;;;0.10;0.10;;;10.00;99.90;;;;;;5065086;28;20036;-80
2022/09/18 05:00:39;;;;;;;0.10;0.10;;;10.00;99.90;;;;;;5054660;28;20045;-81
2022/09/18 05:03:06;;;;;;;0.10;0.10;;;9.90;99.90;;;;;;5068158;28;20549;-81
2022/09/18 05:05:33;;;;;;;0.10;0.10;;;10.00;99.90;;;;;;5065715;28;20591;-81
2022/09/18 05:08:01;;;;;;;0.05;0.05;;;10.10;99.90;;;;;;5065314;28;20050;-80
2022/09/18 05:10:28;;;;;;;0.10;0.10;;;10.10;99.90;;;;;;5062778;28;20044;-79
2022/09/18 05:12:55;;;;;;;0.10;0.10;;;10.00;99.90;;;;;;5060617;28;20048;-80
2022/09/18 05:15:22;;;;;;;0.10;0.10;;;10.00;99.90;;;;;;5058995;28;21265;-79
2022/09/18 05:17:59;;;;;;;0.10;0.10;;;10.10;99.90;;;;;;5056864;28;20041;-78
2022/09/18 05:20:26;;;;;;;0.10;0.10;;;10.20;99.90;;;;;;5061159;28;20416;-80
2022/09/18 05:22:53;;;;;;;0.10;0.10;;;10.20;99.90;;;;;;5064829;28;20114;-79
2022/09/18 05:25:20;;;;;;;0.10;0.10;;;10.30;99.90;;;;;;5067414;28;20067;-80
2022/09/18 05:27:52;;;;;;;0.10;0.10;;;10.30;99.90;;;;;;5058427;28;20062;-81
2022/09/18 05:30:19;;;;;;;0.10;0.10;;;10.20;99.90;;;;;;5062542;28;20420;-81
2022/09/18 05:32:53;;;;;;;0.10;0.10;;;10.30;99.90;;;;;;5067792;28;20045;-79
2022/09/18 05:35:27;;;;;;;0.10;0.10;;;10.50;99.90;;;;;;5061769;28;20559;-79
2022/09/18 05:37:55;;;;;;;0.00;0.00;;;10.60;99.90;;;;;;5063059;28;20036;-79
2022/09/18 05:40:26;;;;;;;0.10;0.10;;;10.70;99.90;;;;;;5064668;28;20063;-79
2022/09/18 05:42:53;;;;;;;0.00;0.00;;;10.70;99.90;;;;;;5060190;28;20049;-79
2022/09/18 05:45:20;;;;;;;0.10;0.10;;;10.80;99.90;;;;;;5053251;28;20052;-80
2022/09/18 05:47:55;;;;;;;0.10;0.10;;;10.80;99.90;;;;;;5069366;28;20041;-79
2022/09/18 05:50:22;;;;;;;0.10;0.10;;;10.70;99.90;;;;;;5063978;28;20045;-80
2022/09/18 05:52:57;;;;;;;0.10;0.10;;;10.70;99.90;;;;;;5067728;28;20050;-80
2022/09/18 05:55:24;;;;;;;0.10;0.10;;;10.70;99.90;;;;;;5059970;28;20049;-81
2022/09/18 05:57:52;;;;;;;0.10;0.10;;;10.70;99.90;;;;;;5061745;28;20420;-81
2022/09/18 06:00:19;;;;;;;0.10;0.10;;;10.70;99.90;;;;;;5063495;28;20067;-80
2022/09/18 06:02:52;;;;;;;0.10;0.10;;;10.80;99.90;;;;;;5060314;28;20420;-79
2022/09/18 06:05:19;;;;;;;0.10;0.10;;;10.80;99.90;;;;;;5055748;28;20045;-80
2022/09/18 06:07:46;;;;;;;0.10;0.10;;;10.70;99.90;;;;;;5065747;28;20514;-80
2022/09/18 06:10:14;;;;;;;0.10;0.10;;;10.70;99.90;;;;;;5057637;28;20045;-81
2022/09/18 06:12:41;;;;;;;0.10;0.10;;;11.20;99.90;;;;;;5065754;28;20075;-79
2022/09/18 06:15:09;;;;;;;0.10;0.10;;;10.80;99.90;;;;;;5057643;28;20045;-79
2022/09/18 06:17:36;;;;;;;0.10;0.10;;;10.90;99.90;;;;;;5056256;28;20044;-80
2022/09/18 06:20:04;;;;;;;0.00;0.00;;;10.90;99.90;;;;;;5063626;28;20127;-80
2022/09/18 06:22:31;;;;;;;0.10;0.10;;;11.00;99.90;;;;;;5061210;28;20400;-81
2022/09/18 06:24:58;;;;;;;0.00;0.00;;;11.00;99.90;;;;;;5064007;28;20419;-80
2022/09/18 06:27:26;;;;;;;0.10;0.10;;;11.00;99.90;;;;;;5061515;28;20037;-79
2022/09/18 06:29:53;;;;;;;0.10;0.10;;;10.90;99.90;;;;;;5056971;28;20533;-81
2022/09/18 06:32:20;;;;;;;0.10;0.10;;;10.90;99.90;;;;;;5057785;28;20045;-80
2022/09/18 06:34:47;;;;;;;0.00;0.00;;;11.10;99.90;;;;;;5064798;28;20102;-79
2022/09/18 06:37:15;;;;;;;0.10;0.10;;;11.10;99.90;;;;;;5059313;28;20037;-80
2022/09/18 06:39:42;;;;;;;0.10;0.10;;;11.00;99.90;;;;;;5058855;28;20044;-80
2022/09/18 06:42:09;;;;;;;0.10;0.10;;;11.00;99.90;;;;;;5063042;28;20040;-81
2022/09/18 06:44:37;;;;;;;0.08;0.08;;;11.00;99.90;;;;;;5057056;28;20044;-79
2022/09/18 06:47:04;;;;;;;0.10;0.10;;;11.10;99.90;;;;;;5058214;28;20507;-79
2022/09/18 06:49:31;;;;;;;0.10;0.10;;;11.10;99.90;;;;;;5059137;28;20056;-80
2022/09/18 06:51:58;;;;;;;0.10;0.10;;;11.00;99.90;;;;;;5056057;28;20135;-80
2022/09/18 06:54:24;;;;;;;0.10;0.10;;;11.20;99.90;;;;;;5057242;28;20040;-79
2022/09/18 06:56:51;;;;;;;0.00;0.00;;;11.20;99.90;;;;;;5066625;28;20047;-80
2022/09/18 06:59:18;;;;;;;0.00;0.00;;;11.30;99.90;;;;;;5052918;28;20064;-79
2022/09/18 07:01:47;;;;;;;0.00;0.00;;;11.30;99.90;;;;;;5063740;28;20051;-80
2022/09/18 07:04:14;;;;;;;0.00;0.00;;;11.30;99.90;;;;;;5057851;28;20055;-81
2022/09/18 07:06:44;;;;;;;0.00;0.00;;;11.30;99.90;;;;;;5062277;28;20398;-77
2022/09/18 07:09:11;;;;;;;0.10;0.10;;;11.30;99.90;;;;;;5051623;28;20572;-80
2022/09/18 07:11:38;;;;;;;0.10;0.10;;;11.30;99.90;;;;;;5060064;28;20045;-81
2022/09/18 07:14:06;;;;;;;0.08;0.08;;;11.30;99.90;;;;;;5062293;28;20047;-80
2022/09/18 07:16:33;;;;;;;0.08;0.08;;;11.30;99.90;;;;;;5066944;28;20044;-80
2022/09/18 07:19:01;;;;;;;0.10;0.10;;;11.40;99.90;;;;;;5059768;28;20041;-79
2022/09/18 07:21:28;;;;;;;0.00;0.00;;;11.50;99.90;;;;;;5063100;28;20068;-80
2022/09/18 07:23:55;;;;;;;0.08;0.08;;;11.60;99.90;;;;;;5056841;28;20037;-79
2022/09/18 07:26:22;;;;;;;0.00;0.00;;;11.50;99.90;;;;;;5055734;28;20047;-81
2022/09/18 07:28:51;;;;;;;0.10;0.10;;;11.50;99.90;;;;;;5060337;28;20044;-79
2022/09/18 07:31:18;;;;;;;0.00;0.00;;;11.60;99.90;;;;;;5059712;28;20117;-80
2022/09/18 07:33:50;;;;;;;0.00;0.00;;;11.70;99.90;;;;;;5057745;28;20056;-80
2022/09/18 07:36:18;;;;;;;0.00;0.00;;;11.90;99.90;;;;;;5058344;28;20037;-81
2022/09/18 07:38:48;;;;;;;0.05;0.05;;;11.80;99.90;;;;;;5052403;28;20041;-80
2022/09/18 07:41:15;;;;;;;0.00;0.00;;;11.80;99.90;;;;;;5057386;28;20404;-79
2022/09/18 07:43:42;;;;;;;0.00;0.00;;;12.00;99.90;;;;;;5059823;28;20169;-80
2022/09/18 07:46:08;;;;;;;0.00;0.00;;;11.90;99.90;;;;;;5064953;28;20087;-80
2022/09/18 07:48:36;;;;;;;0.00;0.00;;;12.00;99.90;;;;;;5064199;28;20096;-79
2022/09/18 07:51:03;;;;;;;0.10;0.10;;;12.10;99.90;;;;;;5058415;28;20032;-79
2022/09/18 07:53:32;;;;;;;0.10;0.10;;;12.00;99.90;;;;;;5066162;28;20052;-79
2022/09/18 07:55:59;;;;;;;0.03;0.03;;;12.00;99.90;;;;;;5054158;28;20520;-79
2022/09/18 07:58:25;;;;;;;0.00;0.00;;;11.90;99.90;;;;;;5063975;28;20033;-80
2022/09/18 08:00:52;;;;;;;0.10;0.10;;;11.90;99.90;;;;;;5060551;28;20052;-81
2022/09/18 08:03:19;;;;;;;0.00;0.00;;;12.10;99.90;;;;;;5056432;28;20044;-79
2022/09/18 08:05:46;;;;;;;0.00;0.00;;;12.10;99.90;;;;;;5065927;28;20052;-80
2022/09/18 08:08:14;;;;;;;0.00;0.00;;;12.20;99.90;;;;;;5067894;28;20124;-79
2022/09/18 08:10:44;;;;;;;0.10;0.10;;;12.20;99.90;;;;;;5056431;28;20055;-80
2022/09/18 08:13:11;;;;;;;0.08;0.08;;;12.20;99.90;;;;;;5066832;28;20744;-79
2022/09/18 08:15:40;;;;;;;0.00;0.00;;;12.10;99.90;;;;;;5063834;28;20047;-80
2022/09/18 08:18:08;;;;;;;0.05;0.05;;;12.10;99.90;;;;;;5056308;28;20045;-80
2022/09/18 08:20:35;;;;;;;0.00;0.00;;;12.10;99.90;;;;;;5057013;28;20043;-79
2022/09/18 08:23:04;;;;;;;0.05;0.05;;;12.00;99.90;;;;;;5062701;28;20041;-79
2022/09/18 08:25:31;;;;;;;0.00;0.00;;;12.10;99.90;;;;;;5065122;28;20412;-79
2022/09/18 08:28:00;;;;;;;0.00;0.00;;;12.10;99.90;;;;;;5064275;28;20528;-79
2022/09/18 08:30:28;;;;;;;0.00;0.00;;;12.10;99.90;;;;;;5066709;28;20088;-81
2022/09/18 08:32:59;;;;;;;0.00;0.00;;;12.10;99.90;;;;;;5056372;28;20072;-79
2022/09/18 08:35:26;;;;;;;0.00;0.00;;;12.10;99.90;;;;;;5058752;28;20043;-80
2022/09/18 08:37:54;;;;;;;0.00;0.00;;;12.10;99.90;;;;;;5064053;28;20033;-81
2022/09/18 08:40:32;;;;;;;0.00;0.00;;;12.10;99.90;;;;;;5063955;28;20404;-79
2022/09/18 08:43:07;;;;;;;0.00;0.00;;;12.00;99.90;;;;;;5062172;28;20041;-80
2022/09/18 08:45:51;;;;;;;0.00;0.00;;;12.00;99.90;;;;;;5061023;28;20055;-80
2022/09/18 08:48:23;;;;;;;0.00;0.00;;;11.90;99.90;;;;;;5055143;28;20416;-80
2022/09/18 08:50:58;;;;;;;0.00;0.00;;;12.00;99.90;;;;;;5071241;28;20040;-80
2022/09/18 08:53:29;;;;;;;0.00;0.00;;;12.10;99.90;;;;;;5061540;28;20048;-80
2022/09/18 08:55:58;;;;;;;0.00;0.00;;;12.10;99.90;;;;;;5065793;28;20036;-79
2022/09/18 08:58:32;;;;;;;0.10;0.10;;;12.30;99.90;;;;;;5058960;28;20051;-79
2022/09/18 09:01:05;;;;;;;0.00;0.00;;;12.50;99.90;;;;;;5058945;28;20049;-81
2022/09/18 09:03:44;;;;;;;0.10;0.10;;;12.40;99.90;;;;;;5060599;28;20523;-79
2022/09/18 09:06:25;;;;;;;0.00;0.00;;;12.40;99.90;;;;;;5054400;28;20167;-80
2022/09/18 09:09:22;;;;;;;0.00;0.00;;;12.40;99.90;;;;;;5077045;22;20059;-86
2022/09/18 09:11:57;;;;;;;0.00;0.00;;;12.30;99.90;;;;;;5078969;28;20048;-88
2022/09/18 09:15:00;;;;;;;0.00;0.00;;;12.20;99.90;;;;;;5060595;28;20055;-88
2022/09/18 09:17:37;;;;;;;0.00;0.00;;;12.10;99.90;;;;;;5060706;28;20045;-88
2022/09/18 09:20:17;;;;;;;0.00;0.00;;;12.10;99.90;;;;;;5064410;28;20048;-88
2022/09/18 09:22:50;;;;;;;0.00;0.00;;;12.00;99.90;;;;;;5067455;28;20095;-87
2022/09/18 09:25:22;;;;;;;0.00;0.00;;;12.10;99.90;;;;;;5062673;28;20043;-87
2022/09/18 09:27:57;;;;;;;0.00;0.00;;;12.10;99.90;;;;;;5059029;28;20487;-87
2022/09/18 09:30:29;;;;;;;0.00;0.00;;;12.00;99.90;;;;;;5066821;28;21371;-88
2022/09/18 09:33:05;;;;;;;0.00;0.00;;;12.10;99.90;;;;;;5067468;28;20422;-87
2022/09/18 09:35:39;;;;;;;0.00;0.00;;;12.10;99.90;;;;;;5060746;28;20044;-87
2022/09/18 09:38:30;;;;;;;0.00;0.00;;;12.30;99.90;;;;;;5076629;28;20044;-87
2022/09/18 09:40:59;;;;;;;0.05;0.05;;;12.20;99.90;;;;;;5071263;28;20036;-84
2022/09/18 09:43:30;;;;;;;0.00;0.00;;;12.20;99.90;;;;;;5068496;28;20052;-87
2022/09/18 09:46:09;;;;;;;0.00;0.00;;;12.20;99.90;;;;;;5078913;28;20488;-87
2022/09/18 09:48:42;;;;;;;0.00;0.00;;;12.10;99.90;;;;;;5069523;28;20504;-87
2022/09/18 09:51:16;;;;;;;0.00;0.00;;;12.10;99.90;;;;;;5070296;28;20038;-87
2022/09/18 09:53:43;;;;;;;0.00;0.00;;;;;;;;;;5054382;28;20423;-87
2022/09/18 09:56:18;;;;;;;0.03;0.03;;;11.80;99.90;;;;;;5065540;28;20041;-88
2022/09/18 09:58:53;;;;;;;0.10;0.10;;;11.90;99.90;;;;;;5058966;28;20044;-87
2022/09/18 10:01:25;;;;;;;0.00;0.00;;;12.00;99.90;;;;;;5069223;28;20411;-87
2022/09/18 10:04:01;;;;;;;0.00;0.00;;;12.00;99.90;;;;;;5060791;28;20120;-87
2022/09/18 10:06:37;;;;;;;0.00;0.00;;;12.10;99.90;;;;;;5063896;28;20041;-88
2022/09/18 10:09:14;;;;;;;0.00;0.00;;;12.10;99.90;;;;;;5060454;28;20484;-87
2022/09/18 10:11:50;;;;;;;0.00;0.00;;;12.10;99.90;;;;;;5066225;28;20493;-88
2022/09/18 10:14:26;;;;;;;0.00;0.00;;;12.10;99.90;;;;;;5059613;28;20040;-88
2022/09/18 10:16:56;;;;;;;0.03;0.03;;;12.00;99.90;;;;;;5059503;28;20099;-88
2022/09/18 10:19:33;;;;;;;0.00;0.00;;;12.20;99.90;;;;;;5068491;28;20124;-88
2022/09/18 10:22:04;;;;;;;0.00;0.00;;;12.20;99.90;;;;;;5061506;28;20393;-88
2022/09/18 10:24:41;;;;;;;0.00;0.00;;;12.20;99.90;;;;;;5058552;28;20047;-87
2022/09/18 10:27:10;;;;;;;0.00;0.00;;;12.10;99.90;;;;;;5067389;28;20059;-88
2022/09/18 10:29:37;;;;;;;0.00;0.00;;;12.20;99.90;;;;;;5062497;28;20530;-87
2022/09/18 10:32:06;;;;;;;0.00;0.00;;;12.10;99.90;;;;;;5070532;28;20066;-87
2022/09/18 10:34:41;;;;;;;0.00;0.00;;;12.20;99.90;;;;;;5062031;28;20710;-88
2022/09/18 10:37:16;;;;;;;0.00;0.00;;;12.30;99.90;;;;;;5063569;28;20044;-87
2022/09/18 10:39:51;;;;;;;0.00;0.00;;;12.30;99.90;;;;;;5062498;28;20044;-88
2022/09/18 10:42:20;;;;;;;0.00;0.00;;;12.20;99.90;;;;;;5060395;28;20043;-88
2022/09/18 10:44:50;;;;;;;0.00;0.00;;;12.10;99.90;;;;;;5064026;28;20045;-87
2022/09/18 10:47:22;;;;;;;0.00;0.00;;;11.90;99.90;;;;;;5063258;28;20033;-86
2022/09/18 10:49:53;;;;;;;0.00;0.00;;;12.00;99.90;;;;;;5064671;28;20491;-88
2022/09/18 10:52:27;;;;;;;0.08;0.08;;;12.00;99.90;;;;;;5059344;28;20037;-89
2022/09/18 10:55:16;;;;;;;0.00;0.00;;;12.00;99.90;;;;;;5052280;28;20110;-88
2022/09/18 10:57:44;;;;;;;0.00;0.00;;;12.10;99.90;;;;;;5056503;28;20138;-87
2022/09/18 11:00:35;;;;;;;0.00;0.00;;;12.10;99.90;;;;;;5069761;28;20040;-88
2022/09/18 11:03:24;;;;;;;0.00;0.00;;;11.90;99.90;;;;;;5070627;28;20039;-88
2022/09/18 11:05:55;;;;;;;0.00;0.00;;;12.00;99.90;;;;;;5061877;28;20052;-88
2022/09/18 11:08:24;;;;;;;0.00;0.00;;;11.90;99.90;;;;;;5061233;28;20033;-89
2022/09/18 11:10:58;;;;;;;0.00;0.00;;;11.80;99.90;;;;;;5059293;28;20066;-87
2022/09/18 11:13:28;;;;;;;0.00;0.00;;;11.70;99.90;;;;;;5068120;28;20083;-87
2022/09/18 11:15:56;;;;;;;0.00;0.00;;;11.70;99.90;;;;;;5063002;28;20075;-87
2022/09/18 11:18:25;;;;;;;0.00;0.00;;;11.60;99.90;;;;;;5058034;28;20045;-85
2022/09/18 11:20:55;;;;;;;0.10;0.10;;;11.40;99.90;;;;;;5068496;28;20033;-87
2022/09/18 11:23:28;;;;;;;0.00;0.00;;;11.20;99.90;;;;;;5068711;28;20072;-87
2022/09/18 11:26:11;;;;;;;0.00;0.00;;;10.80;99.90;;;;;;5063176;28;20040;-87
2022/09/18 11:28:39;;;;;;;0.10;0.10;;;10.60;99.90;;;;;;5064038;28;20322;-87
2022/09/18 11:31:13;;;;;;;0.00;0.00;;;10.70;99.90;;;;;;5060398;28;20068;-87
2022/09/18 11:33:46;;;;;;;0.05;0.05;;;10.70;99.90;;;;;;5063209;28;20093;-87
2022/09/18 11:36:21;;;;;;;0.10;0.10;;;10.70;99.90;;;;;;5062661;28;20046;-87
2022/09/18 11:38:48;;;;;;;0.10;0.10;;;10.70;99.90;;;;;;5067298;28;20082;-87
2022/09/18 11:41:22;;;;;;;0.03;0.03;;;10.70;99.90;;;;;;5058740;28;20044;-87
2022/09/18 11:43:59;;;;;;;0.00;0.00;;;10.70;99.90;;;;;;5062304;28;20059;-88
2022/09/18 11:46:37;;;;;;;0.03;0.03;;;10.70;99.90;;;;;;5059617;28;20044;-88
2022/09/18 11:49:09;;;;;;;0.10;0.10;;;10.80;99.90;;;;;;5060102;28;20043;-87
2022/09/18 11:51:46;;;;;;;0.00;0.00;;;11.00;99.90;;;;;;5063155;28;20391;-86
2022/09/18 11:54:33;;;;;;;0.00;0.00;;;11.10;99.90;;;;;;5060049;28;20415;-88
2022/09/18 11:57:02;;;;;;;0.10;0.10;;;11.20;99.90;;;;;;5066072;28;20376;-87
2022/09/18 11:59:33;;;;;;;0.00;0.00;;;11.30;99.90;;;;;;5066035;28;20033;-89
2022/09/18 12:02:11;;;;;;;0.10;0.10;;;11.40;99.90;;;;;;5075638;28;20294;-86
2022/09/18 12:04:48;;;;;;;0.10;0.10;;;12.90;99.90;;;;;;5078161;28;20129;-87
2022/09/18 12:07:27;;;;;;;0.00;0.00;;;11.50;99.90;;;;;;5072811;28;20082;-85
2022/09/18 12:10:15;;;;;;;0.10;0.10;;;11.60;99.90;;;;;;5068042;28;20723;-88
2022/09/18 12:12:47;;;;;;;0.00;0.00;;;11.50;99.90;;;;;;5075386;28;20047;-87
2022/09/18 12:15:18;;;;;;;0.00;0.00;;;11.70;99.90;;;;;;5073135;28;20041;-88
2022/09/18 12:17:51;;;;;;;0.00;0.00;;;11.60;99.90;;;;;;5077053;28;20046;-88
2022/09/18 12:20:23;;;;;;;0.00;0.00;;;10.90;99.90;;;;;;5075093;28;20028;-88
2022/09/18 12:22:53;;;;;;;0.03;0.03;;;11.60;99.90;;;;;;5074155;28;20075;-87
2022/09/18 12:25:26;;;;;;;0.00;0.00;;;11.70;99.90;;;;;;5066900;28;20571;-87
2022/09/18 12:27:58;;;;;;;0.10;0.10;;;11.50;99.90;;;;;;5069759;28;20512;-87
2022/09/18 12:30:33;;;;;;;0.00;0.00;;;11.80;99.90;;;;;;5082186;28;20036;-87
2022/09/18 12:33:11;;;;;;;0.00;0.00;;;11.80;99.90;;;;;;5061975;28;20449;-87
2022/09/18 12:36:18;;;;;;;0.00;0.00;;;12.00;99.90;;;;;;5066726;28;20048;-87
2022/09/18 12:39:01;;;;;;;0.00;0.00;;;12.00;99.90;;;;;;5071177;28;20060;-87
2022/09/18 12:41:39;;;;;;;0.00;0.00;;;12.10;99.90;;;;;;5077573;28;20040;-86
2022/09/18 12:44:31;;;;;;;0.00;0.00;;;12.10;99.90;;;;;;5074667;28;20067;-88
2022/09/18 12:47:16;;;;;;;0.00;0.00;;;13.30;99.90;;;;;;5069751;28;20048;-87
2022/09/18 12:50:04;;;;;;;0.00;0.00;;;12.10;99.90;;;;;;5064537;28;20048;-87
2022/09/18 12:52:42;;;;;;;0.00;0.00;;;12.10;99.90;;;;;;5070708;28;20064;-87
2022/09/18 12:55:57;;;;;;;0.10;0.10;;;12.10;99.90;;;;;;5064772;28;20102;-87
2022/09/18 12:58:39;;;;;;;0.00;0.00;;;12.00;99.90;;;;;;5057729;28;20043;-87
2022/09/18 13:01:21;;;;;;;0.00;0.00;;;12.00;99.90;;;;;;5067418;28;20092;-87
2022/09/18 13:03:49;;;;;;;0.03;0.03;;;12.00;99.90;;;;;;5064673;28;20041;-89
2022/09/18 13:06:19;;;;;;;0.00;0.00;;;12.10;99.90;;;;;;5063853;28;20515;-88
2022/09/18 13:08:55;;;;;;;0.00;0.00;;;12.20;99.90;;;;;;5052728;28;20800;-88
2022/09/18 13:11:30;;;;;;;0.00;0.00;;;12.40;99.90;;;;;;5061659;28;20423;-88
2022/09/18 13:14:01;;;;;;;0.00;0.00;;;12.30;99.90;;;;;;5064954;28;20136;-86